createdAt,value
2023-03-18T00:01:13.212Z,18.80
2023-03-18T00:03:41.620Z,19.00
2023-03-18T00:06:15.924Z,18.10
2023-03-18T00:08:45.417Z,17.60
2023-03-18T00:11:14.575Z,16.90
2023-03-18T00:13:43.544Z,17.00
2023-03-18T00:16:20.058Z,18.00
2023-03-18T00:18:48.913Z,17.70
2023-03-18T00:21:17.078Z,17.70
2023-03-18T00:23:45.688Z,19.00
2023-03-18T00:26:15.985Z,20.90
2023-03-18T00:28:44.352Z,18.20
2023-03-18T00:31:13.935Z,19.50
2023-03-18T00:33:45.889Z,20.30
2023-03-18T00:36:16.800Z,20.40
2023-03-18T00:38:46.270Z,18.90
2023-03-18T00:41:16.317Z,18.10
2023-03-18T00:43:46.968Z,17.20
2023-03-18T00:46:18.161Z,17.70
2023-03-18T00:48:51.301Z,16.10
2023-03-18T00:51:20.699Z,14.80
2023-03-18T00:53:56.145Z,16.80
2023-03-18T00:56:25.821Z,17.10
2023-03-18T00:58:54.309Z,16.50
2023-03-18T01:01:23.470Z,16.30
2023-03-18T01:03:53.509Z,16.10
2023-03-18T01:06:25.697Z,14.10
2023-03-18T01:08:54.338Z,16.90
2023-03-18T01:11:23.293Z,15.30
2023-03-18T01:13:51.839Z,17.30
2023-03-18T01:16:21.085Z,17.00
2023-03-18T01:18:49.168Z,15.70
2023-03-18T01:21:19.145Z,16.90
2023-03-18T01:23:51.501Z,14.50
2023-03-18T01:26:19.849Z,16.60
2023-03-18T01:28:48.132Z,16.30
2023-03-18T01:31:16.455Z,14.80
2023-03-18T01:33:46.020Z,15.80
2023-03-18T01:36:16.015Z,15.80
2023-03-18T01:38:44.954Z,15.20
2023-03-18T01:41:17.409Z,14.70
2023-03-18T01:43:46.209Z,13.90
2023-03-18T01:46:34.961Z,13.50
2023-03-18T01:49:07.935Z,12.60
2023-03-18T01:51:36.110Z,11.70
2023-03-18T01:54:05.578Z,10.70
2023-03-18T01:56:34.320Z,11.60
2023-03-18T01:59:03.730Z,12.00
2023-03-18T02:02:01.421Z,11.60
2023-03-18T02:04:35.333Z,10.60
2023-03-18T02:07:04.360Z,11.00
2023-03-18T02:09:32.772Z,11.60
2023-03-18T02:12:03.931Z,10.00
2023-03-18T02:14:32.789Z,10.90
2023-03-18T02:17:03.499Z,10.50
2023-03-18T02:20:03.197Z,9.10
2023-03-18T02:22:38.482Z,9.50
2023-03-18T02:25:31.983Z,10.50
2023-03-18T02:28:06.293Z,9.40
2023-03-18T02:30:44.096Z,10.80
2023-03-18T02:33:16.083Z,10.90
2023-03-18T02:35:50.478Z,10.20
2023-03-18T02:38:20.020Z,10.10
2023-03-18T02:40:49.087Z,10.80
2023-03-18T02:43:24.711Z,10.30
2023-03-18T02:46:30.031Z,10.70
2023-03-18T02:48:59.978Z,9.80
2023-03-18T02:51:28.334Z,9.30
2023-03-18T02:54:01.693Z,10.50
2023-03-18T02:56:30.172Z,9.50
2023-03-18T02:58:58.593Z,9.20
2023-03-18T03:01:28.005Z,9.00
2023-03-18T03:03:56.693Z,8.80
2023-03-18T03:06:25.680Z,8.80
2023-03-18T03:08:54.597Z,9.80
2023-03-18T03:11:23.770Z,8.70
2023-03-18T03:13:52.046Z,9.80
2023-03-18T03:16:20.813Z,8.70
2023-03-18T03:18:49.010Z,9.30
2023-03-18T03:21:20.773Z,9.00
2023-03-18T03:23:50.166Z,9.00
2023-03-18T03:26:21.220Z,9.60
2023-03-18T03:28:49.855Z,9.80
2023-03-18T03:31:18.229Z,9.90
2023-03-18T03:33:46.431Z,9.50
2023-03-18T03:36:16.487Z,9.50
2023-03-18T03:38:47.211Z,9.40
2023-03-18T03:41:16.024Z,9.60
2023-03-18T03:43:44.976Z,9.20
2023-03-18T03:46:13.203Z,8.60
2023-03-18T03:48:42.653Z,9.60
2023-03-18T03:51:15.101Z,9.20
2023-03-18T03:53:46.280Z,9.50
2023-03-18T03:56:15.756Z,9.40
2023-03-18T03:58:45.926Z,8.20
2023-03-18T04:01:14.480Z,10.00
2023-03-18T04:03:44.938Z,9.60
2023-03-18T04:06:13.495Z,9.20
2023-03-18T04:08:47.729Z,8.70
2023-03-18T04:11:17.750Z,8.90
2023-03-18T04:13:46.712Z,9.30
2023-03-18T04:16:19.944Z,9.30
2023-03-18T04:18:50.851Z,11.60
2023-03-18T04:23:55.655Z,16.20
2023-03-18T04:26:24.273Z,14.00
2023-03-18T04:28:57.750Z,15.30
2023-03-18T04:31:25.981Z,13.80
2023-03-18T04:33:55.548Z,13.10
2023-03-18T04:36:24.641Z,11.10
2023-03-18T04:38:53.227Z,10.60
2023-03-18T04:41:22.945Z,11.90
2023-03-18T04:43:51.567Z,10.70
2023-03-18T04:46:19.884Z,10.20
2023-03-18T04:48:49.545Z,10.40
2023-03-18T04:51:18.870Z,8.80
2023-03-18T04:56:19.559Z,7.90
2023-03-18T04:58:50.951Z,8.40
2023-03-18T05:01:22.373Z,9.00
2023-03-18T05:03:51.190Z,8.00
2023-03-18T05:06:25.368Z,7.70
2023-03-18T05:09:00.523Z,7.10
2023-03-18T05:11:33.831Z,6.90
2023-03-18T05:14:08.255Z,6.70
2023-03-18T05:16:42.555Z,7.10
2023-03-18T05:19:14.029Z,7.20
2023-03-18T05:21:49.116Z,6.80
2023-03-18T05:26:52.651Z,5.80
2023-03-18T05:29:24.087Z,7.50
2023-03-18T05:32:11.388Z,6.50
2023-03-18T05:34:40.804Z,8.80
2023-03-18T05:37:11.684Z,8.90
2023-03-18T05:39:45.069Z,8.20
2023-03-18T05:42:15.276Z,9.60
2023-03-18T05:44:47.121Z,7.90
2023-03-18T05:47:15.922Z,8.70
2023-03-18T05:49:52.890Z,7.90
2023-03-18T05:52:24.755Z,9.20
2023-03-18T05:54:55.738Z,8.70
2023-03-18T05:57:28.505Z,7.90
2023-03-18T06:00:00.974Z,8.30
2023-03-18T06:02:32.870Z,8.20
2023-03-18T06:05:01.574Z,7.90
2023-03-18T06:07:30.670Z,6.60
2023-03-18T06:10:01.142Z,6.40
2023-03-18T06:12:30.664Z,6.60
2023-03-18T06:14:59.727Z,5.60
2023-03-18T06:17:28.115Z,6.30
2023-03-18T06:19:59.189Z,6.20
2023-03-18T06:22:28.149Z,6.30
2023-03-18T06:25:01.424Z,6.70
2023-03-18T06:27:30.499Z,6.40
2023-03-18T06:30:08.461Z,6.60
2023-03-18T06:35:11.015Z,6.80
2023-03-18T06:37:40.205Z,6.30
2023-03-18T06:40:09.537Z,5.40
2023-03-18T06:42:38.057Z,6.40
2023-03-18T06:45:13.759Z,6.10
2023-03-18T06:47:51.469Z,5.40
2023-03-18T06:50:20.767Z,6.60
2023-03-18T06:52:49.631Z,5.20
2023-03-18T06:55:20.068Z,5.60
2023-03-18T06:57:48.515Z,5.80
2023-03-18T07:00:19.977Z,6.50
2023-03-18T07:02:49.825Z,5.60
2023-03-18T07:05:20.733Z,5.20
2023-03-18T07:07:51.002Z,6.40
2023-03-18T07:10:24.574Z,5.80
2023-03-18T07:12:58.684Z,5.60
2023-03-18T07:15:27.469Z,6.10
2023-03-18T07:17:57.080Z,5.10
2023-03-18T07:20:25.990Z,7.10
2023-03-18T07:22:54.274Z,6.80
2023-03-18T07:25:23.056Z,5.50
2023-03-18T07:27:53.362Z,8.80
2023-03-18T07:30:21.947Z,6.30
2023-03-18T07:32:50.891Z,5.50
2023-03-18T07:35:19.160Z,5.50
2023-03-18T07:37:48.388Z,5.50
2023-03-18T07:40:16.905Z,5.90
2023-03-18T07:42:46.503Z,5.90
2023-03-18T07:45:17.329Z,6.10
2023-03-18T07:47:47.218Z,5.60
2023-03-18T07:50:16.298Z,5.60
2023-03-18T07:52:48.403Z,4.90
2023-03-18T07:55:16.777Z,5.70
2023-03-18T08:00:17.022Z,9.80
2023-03-18T08:02:45.473Z,8.60
2023-03-18T08:05:16.381Z,6.30
2023-03-18T08:07:45.295Z,7.90
2023-03-18T08:10:15.081Z,9.00
2023-03-18T08:12:53.054Z,6.40
2023-03-18T08:15:22.588Z,8.60
2023-03-18T08:17:54.248Z,25.50
2023-03-18T08:20:23.310Z,9.10
2023-03-18T08:22:52.031Z,8.00
2023-03-18T08:25:23.793Z,6.10
2023-03-18T08:27:52.559Z,4.80
2023-03-18T08:30:20.705Z,7.30
2023-03-18T08:32:49.371Z,20.20
2023-03-18T08:35:20.244Z,37.60
2023-03-18T08:37:51.227Z,18.50
2023-03-18T08:40:20.533Z,7.60
2023-03-18T08:42:49.240Z,4.90
2023-03-18T08:45:17.872Z,7.00
2023-03-18T08:47:45.886Z,5.50
2023-03-18T08:50:14.632Z,5.80
2023-03-18T08:52:43.672Z,5.20
2023-03-18T08:55:11.663Z,11.60
2023-03-18T08:57:40.205Z,5.50
2023-03-18T09:00:10.089Z,10.60
2023-03-18T09:02:44.401Z,5.10
2023-03-18T09:05:13.908Z,6.40
2023-03-18T09:07:41.947Z,5.40
2023-03-18T09:10:13.156Z,6.80
2023-03-18T09:12:42.432Z,7.70
2023-03-18T09:15:11.506Z,6.50
2023-03-18T09:17:56.548Z,6.20
2023-03-18T09:20:28.611Z,15.40
2023-03-18T09:23:00.250Z,21.80
2023-03-18T09:25:28.583Z,10.60
2023-03-18T09:27:56.777Z,6.60
2023-03-18T09:30:33.889Z,5.70
2023-03-18T09:33:02.467Z,6.00
2023-03-18T09:35:35.516Z,5.10
2023-03-18T09:38:04.882Z,4.30
2023-03-18T09:40:37.912Z,5.40
2023-03-18T09:43:29.774Z,6.00
2023-03-18T09:46:22.087Z,5.50
2023-03-18T09:49:25.993Z,7.70
2023-03-18T09:52:09.998Z,7.40
2023-03-18T09:54:41.437Z,6.90
2023-03-18T09:59:47.958Z,4.40
2023-03-18T10:02:49.739Z,7.80
2023-03-18T10:05:32.805Z,6.90
2023-03-18T10:08:13.222Z,4.40
2023-03-18T10:10:44.094Z,6.10
2023-03-18T10:13:36.806Z,3.60
2023-03-18T10:16:06.148Z,5.00
2023-03-18T10:18:39.783Z,6.00
2023-03-18T10:21:27.794Z,5.30
2023-03-18T10:24:15.388Z,5.50
2023-03-18T10:26:52.667Z,4.10
2023-03-18T10:29:28.431Z,3.80
2023-03-18T10:32:46.341Z,4.30
2023-03-18T10:35:39.150Z,4.00
2023-03-18T10:38:43.365Z,3.80
2023-03-18T10:41:16.190Z,7.60
2023-03-18T10:43:46.119Z,6.80
2023-03-18T10:46:35.929Z,5.90
2023-03-18T10:49:08.221Z,8.60
2023-03-18T10:51:42.097Z,6.40
2023-03-18T10:54:24.280Z,8.10
2023-03-18T10:56:53.557Z,6.20
2023-03-18T10:59:22.885Z,5.80
2023-03-18T11:02:16.272Z,4.80
2023-03-18T11:04:54.538Z,4.70
2023-03-18T11:07:26.042Z,23.80
2023-03-18T11:09:58.033Z,10.90
2023-03-18T11:12:28.828Z,5.40
2023-03-18T11:14:58.086Z,7.70
2023-03-18T11:20:47.572Z,5.70
2023-03-18T11:23:19.182Z,4.10
2023-03-18T11:25:48.684Z,8.70
2023-03-18T11:28:23.402Z,3.30
2023-03-18T11:30:56.198Z,3.40
2023-03-18T11:33:25.836Z,5.60
2023-03-18T11:35:57.645Z,4.70
2023-03-18T11:38:33.600Z,4.40
2023-03-18T11:54:48.542Z,3.50
2023-03-18T11:57:23.993Z,3.60
2023-03-18T12:00:09.837Z,3.30
2023-03-18T12:02:49.950Z,3.30
2023-03-18T12:05:35.530Z,4.40
2023-03-18T12:08:24.502Z,3.40
2023-03-18T12:11:05.468Z,3.90
2023-03-18T12:13:46.765Z,3.70
2023-03-18T12:29:10.004Z,4.30
2023-03-18T12:31:48.869Z,3.50
2023-03-18T12:34:23.050Z,3.00
2023-03-18T12:36:59.741Z,3.00
2023-03-18T12:39:37.067Z,2.70
2023-03-18T12:42:39.101Z,2.70
2023-03-18T12:45:13.448Z,3.10
2023-03-18T12:47:49.860Z,2.80
2023-03-18T12:50:26.045Z,3.20
2023-03-18T12:53:16.550Z,3.80
2023-03-18T12:55:50.383Z,3.30
2023-03-18T12:58:24.763Z,3.40
2023-03-18T13:00:54.709Z,4.40
2023-03-18T13:03:44.859Z,2.90
2023-03-18T13:06:19.076Z,3.80
2023-03-18T13:09:00.562Z,4.00
2023-03-18T13:11:54.707Z,2.90
2023-03-18T13:14:39.433Z,3.40
2023-03-18T13:17:14.022Z,9.50
2023-03-18T13:19:42.185Z,3.70
2023-03-18T13:22:29.141Z,7.30
2023-03-18T13:25:06.130Z,3.30
2023-03-18T13:27:53.328Z,3.90
2023-03-18T13:30:56.919Z,3.80
2023-03-18T13:33:51.095Z,4.00
2023-03-18T13:36:32.004Z,4.10
2023-03-18T13:39:32.814Z,3.50
2023-03-18T13:42:20.621Z,4.30
2023-03-18T13:45:11.037Z,3.50
2023-03-18T13:47:39.330Z,3.40
2023-03-18T13:50:27.169Z,3.40
2023-03-18T13:52:56.034Z,4.10
2023-03-18T13:55:39.804Z,4.80
2023-03-18T13:58:17.683Z,3.30
2023-03-18T14:01:09.214Z,6.50
2023-03-18T14:03:53.443Z,3.70
2023-03-18T14:06:44.766Z,3.40
2023-03-18T14:09:25.393Z,5.10
2023-03-18T14:11:53.767Z,4.10
2023-03-18T14:14:41.881Z,3.40
2023-03-18T14:17:35.477Z,4.80
2023-03-18T14:20:17.563Z,7.70
2023-03-18T14:22:47.294Z,4.90
2023-03-18T14:25:18.107Z,4.00
2023-03-18T14:27:52.293Z,6.10
2023-03-18T14:30:32.433Z,7.00
2023-03-18T14:33:27.066Z,4.90
2023-03-18T14:36:10.103Z,3.90
2023-03-18T14:38:53.160Z,3.70
2023-03-18T14:44:18.604Z,4.90
2023-03-18T14:46:46.793Z,3.70
2023-03-18T14:49:36.063Z,3.60
2023-03-18T14:52:15.891Z,3.70
2023-03-18T14:54:46.128Z,4.00
2023-03-18T14:57:14.486Z,5.10
2023-03-18T14:59:44.819Z,4.00
2023-03-18T15:02:30.621Z,4.20
2023-03-18T15:04:59.436Z,3.80
2023-03-18T15:07:38.230Z,3.60
2023-03-18T15:10:12.855Z,4.20
2023-03-18T15:12:42.820Z,3.70
2023-03-18T15:15:14.785Z,6.60
2023-03-18T15:17:49.204Z,7.30
2023-03-18T15:20:21.975Z,5.30
2023-03-18T15:22:50.464Z,6.50
2023-03-18T15:25:20.749Z,9.00
2023-03-18T15:27:50.115Z,5.90
2023-03-18T15:30:29.266Z,6.00
2023-03-18T15:33:08.216Z,5.90
2023-03-18T15:35:37.617Z,5.50
2023-03-18T15:38:12.350Z,4.90
2023-03-18T15:40:47.947Z,10.00
2023-03-18T15:43:35.706Z,10.70
2023-03-18T15:46:08.128Z,10.50
2023-03-18T15:48:42.229Z,9.20
2023-03-18T15:51:26.959Z,20.10
2023-03-18T15:54:03.506Z,31.10
2023-03-18T15:56:33.433Z,13.70
2023-03-18T15:59:16.064Z,8.90
2023-03-18T16:01:44.285Z,10.00
2023-03-18T16:04:15.200Z,9.20
2023-03-18T16:06:44.480Z,10.00
2023-03-18T16:09:17.405Z,13.30
2023-03-18T16:11:58.459Z,10.70
2023-03-18T16:14:53.306Z,9.50
2023-03-18T16:17:22.235Z,10.20
2023-03-18T16:19:55.257Z,10.00
2023-03-18T16:22:23.370Z,11.90
2023-03-18T16:24:51.897Z,11.20
2023-03-18T16:27:39.500Z,10.40
2023-03-18T16:30:23.455Z,11.00
2023-03-18T16:32:52.261Z,11.60
2023-03-18T16:35:25.504Z,10.10
2023-03-18T16:37:53.686Z,9.80
2023-03-18T16:40:24.855Z,12.30
2023-03-18T16:42:55.532Z,18.20
2023-03-18T16:45:31.264Z,18.90
2023-03-18T16:48:11.128Z,21.60
2023-03-18T16:50:41.736Z,19.20
2023-03-18T16:53:27.826Z,15.80
2023-03-18T16:55:59.844Z,19.00
2023-03-18T16:58:36.594Z,18.80
2023-03-18T17:01:07.799Z,18.40
2023-03-18T17:03:36.644Z,18.10
2023-03-18T17:06:09.342Z,17.60
2023-03-18T17:08:43.216Z,18.10
2023-03-18T17:11:16.394Z,13.30
2023-03-18T17:13:44.923Z,12.30
2023-03-18T17:16:18.218Z,12.90
2023-03-18T17:18:46.254Z,11.40
2023-03-18T17:21:17.088Z,9.60
2023-03-18T17:23:47.789Z,10.50
2023-03-18T17:26:16.493Z,9.70
2023-03-18T17:28:48.736Z,11.60
2023-03-18T17:31:17.538Z,14.60
2023-03-18T17:33:51.249Z,14.70
2023-03-18T17:36:20.765Z,17.60
2023-03-18T17:38:49.120Z,15.70
2023-03-18T17:41:20.190Z,11.70
2023-03-18T17:43:52.907Z,8.90
2023-03-18T17:46:21.142Z,8.90
2023-03-18T17:48:49.892Z,9.60
2023-03-18T17:53:56.830Z,11.30
2023-03-18T17:56:27.070Z,10.80
2023-03-18T17:58:56.638Z,9.60
2023-03-18T18:01:29.139Z,10.90
2023-03-18T18:03:58.079Z,11.00
2023-03-18T18:06:34.419Z,13.00
2023-03-18T18:09:05.998Z,12.50
2023-03-18T18:11:47.105Z,12.90
2023-03-18T18:14:19.321Z,14.10
2023-03-18T18:16:47.839Z,29.80
2023-03-18T18:19:24.445Z,19.20
2023-03-18T18:21:53.448Z,24.60
2023-03-18T18:24:25.813Z,23.90
2023-03-18T18:26:55.108Z,27.60
2023-03-18T18:29:24.463Z,27.10
2023-03-18T18:31:58.710Z,21.40
2023-03-18T18:34:27.996Z,24.20
2023-03-18T18:36:56.330Z,30.40
2023-03-18T18:39:24.648Z,26.10
2023-03-18T18:42:08.278Z,27.80
2023-03-18T18:44:38.736Z,26.40
2023-03-18T18:47:19.963Z,22.80
2023-03-18T18:49:54.116Z,26.50
2023-03-18T18:52:23.193Z,30.40
2023-03-18T18:54:52.260Z,25.00
2023-03-18T18:57:24.792Z,30.60
2023-03-18T18:59:53.451Z,23.70
2023-03-18T19:02:33.780Z,29.10
2023-03-18T19:05:04.730Z,37.90
2023-03-18T19:07:33.833Z,28.50
2023-03-18T19:10:02.124Z,30.00
2023-03-18T19:12:31.086Z,32.50
2023-03-18T19:14:59.871Z,25.50
2023-03-18T19:17:28.459Z,34.10
2023-03-18T19:19:56.902Z,20.20
2023-03-18T19:22:26.258Z,23.50
2023-03-18T19:24:55.026Z,33.50
2023-03-18T19:27:29.526Z,28.40
2023-03-18T19:30:00.451Z,30.90
2023-03-18T19:32:28.618Z,25.70
2023-03-18T19:34:59.465Z,21.50
2023-03-18T19:37:32.529Z,25.00
2023-03-18T19:40:01.088Z,21.90
2023-03-18T19:42:29.814Z,26.00
2023-03-18T19:44:57.921Z,24.80
2023-03-18T19:47:28.252Z,17.60
2023-03-18T19:49:56.945Z,21.40
2023-03-18T19:52:28.423Z,19.00
2023-03-18T19:54:56.566Z,16.70
2023-03-18T19:57:29.424Z,15.50
2023-03-18T20:00:01.356Z,14.50
2023-03-18T20:02:31.424Z,17.20
2023-03-18T20:05:01.733Z,15.70
2023-03-18T20:07:32.559Z,12.90
2023-03-18T20:10:00.913Z,16.80
2023-03-18T20:12:43.719Z,18.80
2023-03-18T20:15:25.333Z,17.40
2023-03-18T20:17:53.581Z,19.40
2023-03-18T20:20:25.748Z,16.70
2023-03-18T20:22:56.789Z,18.60
2023-03-18T20:25:27.056Z,18.00
2023-03-18T20:27:58.358Z,16.20
2023-03-18T20:30:34.404Z,14.90
2023-03-18T20:33:07.651Z,16.00
2023-03-18T20:35:42.882Z,13.60
2023-03-18T20:38:18.955Z,14.70
2023-03-18T20:40:52.790Z,15.10
2023-03-18T20:43:23.100Z,14.40
2023-03-18T20:45:53.183Z,15.20
2023-03-18T20:48:22.826Z,13.90
2023-03-18T20:50:52.516Z,14.40
2023-03-18T20:53:26.451Z,14.10
2023-03-18T20:55:54.945Z,12.60
2023-03-18T20:58:27.523Z,14.30
2023-03-18T21:00:56.918Z,14.70
2023-03-18T21:03:27.598Z,13.80
2023-03-18T21:05:57.380Z,13.40
2023-03-18T21:08:26.136Z,13.60
2023-03-18T21:10:54.634Z,14.30
2023-03-18T21:13:31.120Z,14.40
2023-03-18T21:16:00.797Z,14.30
2023-03-18T21:18:29.203Z,15.90
2023-03-18T21:20:57.777Z,15.00
2023-03-18T21:23:27.763Z,12.40
2023-03-18T21:25:58.393Z,16.00
2023-03-18T21:30:58.778Z,15.80
2023-03-18T21:33:28.008Z,16.60
2023-03-18T21:35:59.645Z,15.70
2023-03-18T21:38:29.522Z,14.30
2023-03-18T21:40:58.744Z,13.70
2023-03-18T21:43:34.783Z,13.50
2023-03-18T21:46:05.451Z,15.30
2023-03-18T21:48:33.790Z,16.30
2023-03-18T21:51:01.905Z,12.70
2023-03-18T21:53:30.225Z,16.40
2023-03-18T21:56:03.542Z,15.60
2023-03-18T21:58:33.962Z,16.20
2023-03-18T22:01:02.147Z,16.50
2023-03-18T22:03:33.207Z,14.80
2023-03-18T22:06:01.306Z,15.70
2023-03-18T22:08:31.276Z,14.50
2023-03-18T22:10:59.572Z,14.80
2023-03-18T22:13:27.751Z,14.40
2023-03-18T22:15:57.781Z,15.00
2023-03-18T22:18:29.392Z,18.90
2023-03-18T22:20:57.433Z,18.80
2023-03-18T22:23:31.273Z,14.90
2023-03-18T22:25:59.779Z,17.70
2023-03-18T22:28:32.445Z,18.50
2023-03-18T22:31:03.315Z,18.80
2023-03-18T22:33:32.691Z,20.50
2023-03-18T22:36:01.431Z,19.30
2023-03-18T22:38:32.987Z,18.70
2023-03-18T22:41:04.977Z,17.70
2023-03-18T22:43:36.337Z,17.00
2023-03-18T22:46:06.608Z,20.50
2023-03-18T22:48:36.675Z,22.60
2023-03-18T22:51:05.576Z,18.80
2023-03-18T22:53:38.452Z,25.80
2023-03-18T22:56:09.254Z,26.70
2023-03-18T22:58:37.564Z,27.70
2023-03-18T23:01:06.789Z,29.40
2023-03-18T23:03:36.459Z,21.80
2023-03-18T23:06:05.162Z,28.30
2023-03-18T23:08:34.362Z,28.50
2023-03-18T23:11:02.604Z,26.20
2023-03-18T23:13:37.074Z,26.20
2023-03-18T23:16:07.298Z,23.80
2023-03-18T23:18:35.636Z,24.30
2023-03-18T23:21:14.030Z,21.50
2023-03-18T23:23:44.005Z,24.00
2023-03-18T23:26:12.623Z,21.80
2023-03-18T23:28:44.880Z,23.70
2023-03-18T23:31:14.820Z,19.10
2023-03-18T23:33:44.976Z,22.50
2023-03-18T23:36:13.457Z,22.80
2023-03-18T23:38:45.487Z,21.30
2023-03-18T23:41:13.587Z,24.90
2023-03-18T23:43:51.136Z,26.50
2023-03-18T23:46:19.693Z,25.00
2023-03-18T23:48:48.159Z,23.60
2023-03-18T23:51:16.344Z,26.30
2023-03-18T23:53:44.852Z,26.40
2023-03-18T23:56:17.422Z,27.40
2023-03-18T23:58:46.804Z,24.40
